createdAt,value
2024-02-13T00:01:43.928Z,98120.00
2024-02-13T00:04:33.528Z,98126.00
2024-02-13T00:07:21.216Z,98123.00
2024-02-13T00:10:13.023Z,98127.00
2024-02-13T00:13:00.651Z,98131.00
2024-02-13T00:15:48.361Z,98136.00
2024-02-13T00:18:35.985Z,98137.00
2024-02-13T00:21:24.031Z,98141.00
2024-02-13T00:24:11.562Z,98140.00
2024-02-13T00:27:00.516Z,98146.00
2024-02-13T00:29:48.486Z,98153.00
2024-02-13T00:32:40.919Z,98149.00
2024-02-13T00:35:30.850Z,98156.00
2024-02-13T00:38:18.579Z,98149.00
2024-02-13T00:41:06.348Z,98154.00
2024-02-13T00:43:55.203Z,98155.00
2024-02-13T00:46:42.776Z,98158.00
2024-02-13T00:49:30.392Z,98162.00
2024-02-13T00:52:18.034Z,98161.00
2024-02-13T00:55:08.718Z,98161.00
2024-02-13T00:57:56.234Z,98168.00
2024-02-13T01:00:43.976Z,98171.00
2024-02-13T01:03:32.153Z,98179.00
2024-02-13T01:06:19.754Z,98185.00
2024-02-13T01:09:08.403Z,98183.00
2024-02-13T01:11:56.210Z,98192.00
2024-02-13T01:14:43.866Z,98194.00
2024-02-13T01:17:31.596Z,98193.00
2024-02-13T01:20:19.840Z,98198.00
2024-02-13T01:23:07.685Z,98202.00
2024-02-13T01:25:55.234Z,98202.00
2024-02-13T01:28:42.997Z,98209.00
2024-02-13T01:31:34.318Z,98207.00
2024-02-13T01:34:22.867Z,98219.00
2024-02-13T01:37:10.597Z,98219.00
2024-02-13T01:39:58.189Z,98214.00
2024-02-13T01:42:49.949Z,98215.00
2024-02-13T01:45:37.699Z,98224.00
2024-02-13T01:48:28.081Z,98224.00
2024-02-13T01:51:18.302Z,98230.00
2024-02-13T01:54:12.023Z,98233.00
2024-02-13T01:57:00.414Z,98237.00
2024-02-13T01:59:48.672Z,98240.00
2024-02-13T02:02:37.127Z,98240.00
2024-02-13T02:05:24.742Z,98247.00
2024-02-13T02:08:15.489Z,98251.00
2024-02-13T02:11:04.258Z,98254.00
2024-02-13T02:13:53.849Z,98262.00
2024-02-13T02:16:41.398Z,98263.00
2024-02-13T02:19:29.305Z,98270.00
2024-02-13T02:22:16.898Z,98273.00
2024-02-13T02:25:09.040Z,98265.00
2024-02-13T02:27:56.896Z,98279.00
2024-02-13T02:30:47.178Z,98280.00
2024-02-13T02:33:34.907Z,98292.00
2024-02-13T02:36:23.123Z,98297.00
2024-02-13T02:39:10.697Z,98291.00
2024-02-13T02:41:58.257Z,98302.00
2024-02-13T02:44:45.951Z,98301.00
2024-02-13T02:47:35.768Z,98303.00
2024-02-13T02:50:23.883Z,98310.00
2024-02-13T02:53:12.219Z,98322.00
2024-02-13T02:56:00.189Z,98317.00
2024-02-13T02:58:47.717Z,98333.00
2024-02-13T03:01:35.683Z,98329.00
2024-02-13T03:04:23.514Z,98336.00
2024-02-13T03:07:11.118Z,98349.00
2024-02-13T03:09:59.703Z,98348.00
2024-02-13T03:12:47.780Z,98353.00
2024-02-13T03:15:35.501Z,98365.00
2024-02-13T03:18:26.087Z,98360.00
2024-02-13T03:21:13.857Z,98365.00
2024-02-13T03:24:01.440Z,98378.00
2024-02-13T03:26:49.089Z,98374.00
2024-02-13T03:29:37.299Z,98379.00
2024-02-13T03:32:26.467Z,98387.00
2024-02-13T03:35:14.849Z,98391.00
2024-02-13T03:38:03.354Z,98396.00
2024-02-13T03:40:50.879Z,98392.00
2024-02-13T03:43:42.327Z,98392.00
2024-02-13T03:46:30.017Z,98394.00
2024-02-13T03:49:17.678Z,98395.00
2024-02-13T03:52:05.605Z,98392.00
2024-02-13T03:54:53.231Z,98401.00
2024-02-13T03:57:41.585Z,98398.00
2024-02-13T04:00:29.319Z,98403.00
2024-02-13T04:03:16.889Z,98408.00
2024-02-13T04:06:07.435Z,98422.00
2024-02-13T04:08:57.402Z,98420.00
2024-02-13T04:11:47.539Z,98435.00
2024-02-13T04:14:36.010Z,98436.00
2024-02-13T04:17:23.628Z,98441.00
2024-02-13T04:20:12.695Z,98448.00
2024-02-13T04:23:02.475Z,98447.00
2024-02-13T04:25:50.503Z,98455.00
2024-02-13T04:28:40.901Z,98454.00
2024-02-13T04:31:28.894Z,98460.00
2024-02-13T04:34:17.010Z,98461.00
2024-02-13T04:37:04.733Z,98464.00
2024-02-13T04:39:52.259Z,98467.00
2024-02-13T04:42:41.037Z,98473.00
2024-02-13T04:45:29.298Z,98483.00
2024-02-13T04:48:17.091Z,98488.00
2024-02-13T04:51:08.274Z,98490.00
2024-02-13T04:53:55.994Z,98501.00
2024-02-13T04:56:43.586Z,98498.00
2024-02-13T04:59:38.910Z,98498.00
2024-02-13T05:02:26.814Z,98499.00
2024-02-13T05:05:33.828Z,98501.00
2024-02-13T05:08:21.639Z,98506.00
2024-02-13T05:11:09.375Z,98516.00
2024-02-13T05:13:59.861Z,98519.00
2024-02-13T05:16:48.703Z,98519.00
2024-02-13T05:19:36.350Z,98525.00
2024-02-13T05:22:23.848Z,98526.00
2024-02-13T05:25:12.725Z,98539.00
2024-02-13T05:28:01.517Z,98540.00
2024-02-13T05:30:49.250Z,98551.00
2024-02-13T05:33:37.954Z,98563.00
2024-02-13T05:36:29.621Z,98559.00
2024-02-13T05:39:17.236Z,98561.00
2024-02-13T05:42:05.228Z,98563.00
2024-02-13T05:44:52.780Z,98570.00
2024-02-13T05:47:40.888Z,98580.00
2024-02-13T05:50:29.410Z,98576.00
2024-02-13T05:53:17.205Z,98584.00
2024-02-13T05:56:05.642Z,98590.00
2024-02-13T05:58:53.392Z,98598.00
2024-02-13T06:01:41.040Z,98594.00
2024-02-13T06:04:28.814Z,98597.00
2024-02-13T06:07:16.539Z,98604.00
2024-02-13T06:10:04.371Z,98608.00
2024-02-13T06:12:52.344Z,98622.00
2024-02-13T06:15:40.205Z,98622.00
2024-02-13T06:18:27.943Z,98619.00
2024-02-13T06:21:22.253Z,98620.00
2024-02-13T06:24:11.320Z,98630.00
2024-02-13T06:26:58.970Z,98635.00
2024-02-13T06:29:46.591Z,98635.00
2024-02-13T06:32:34.357Z,98644.00
2024-02-13T06:35:22.011Z,98646.00
2024-02-13T06:38:09.757Z,98653.00
2024-02-13T06:40:59.181Z,98660.00
2024-02-13T06:43:47.861Z,98651.00
2024-02-13T06:46:35.435Z,98661.00
2024-02-13T06:49:23.050Z,98672.00
2024-02-13T06:52:11.114Z,98671.00
2024-02-13T06:54:58.649Z,98666.00
2024-02-13T06:57:46.250Z,98675.00
2024-02-13T07:00:33.957Z,98674.00
2024-02-13T07:03:22.802Z,98685.00
2024-02-13T07:06:13.216Z,98689.00
2024-02-13T07:09:01.385Z,98681.00
2024-02-13T07:11:49.022Z,98685.00
2024-02-13T07:14:36.761Z,98691.00
2024-02-13T07:17:24.856Z,98693.00
2024-02-13T07:20:13.017Z,98695.00
2024-02-13T07:23:00.689Z,98699.00
2024-02-13T07:25:49.809Z,98703.00
2024-02-13T07:28:37.355Z,98707.00
2024-02-13T07:31:24.887Z,98702.00
2024-02-13T07:34:12.591Z,98709.00
2024-02-13T07:37:00.246Z,98704.00
2024-02-13T07:39:47.816Z,98707.00
2024-02-13T07:42:35.418Z,98715.00
2024-02-13T07:45:24.642Z,98720.00
2024-02-13T07:48:13.460Z,98718.00
2024-02-13T07:51:02.919Z,98728.00
2024-02-13T07:53:50.596Z,98728.00
2024-02-13T07:56:40.197Z,98736.00
2024-02-13T07:59:27.838Z,98731.00
2024-02-13T08:02:15.887Z,98744.00
2024-02-13T08:05:03.737Z,98746.00
2024-02-13T08:07:51.409Z,98750.00
2024-02-13T08:10:39.685Z,98753.00
2024-02-13T08:13:27.354Z,98753.00
2024-02-13T08:16:15.429Z,98757.00
2024-02-13T08:19:03.322Z,98753.00
2024-02-13T08:21:51.018Z,98755.00
2024-02-13T08:24:38.610Z,98749.00
2024-02-13T08:27:27.020Z,98745.00
2024-02-13T08:30:14.842Z,98761.00
2024-02-13T08:33:03.108Z,98758.00
2024-02-13T08:35:54.032Z,98767.00
2024-02-13T08:38:44.758Z,98763.00
2024-02-13T08:41:33.314Z,98770.00
2024-02-13T08:44:20.938Z,98767.00
2024-02-13T08:47:08.633Z,98773.00
2024-02-13T08:49:56.755Z,98774.00
2024-02-13T08:52:44.860Z,98782.00
2024-02-13T08:55:32.527Z,98776.00
2024-02-13T08:58:20.176Z,98774.00
2024-02-13T09:01:08.090Z,98785.00
2024-02-13T09:03:55.757Z,98791.00
2024-02-13T09:06:43.455Z,98793.00
2024-02-13T09:09:34.435Z,98785.00
2024-02-13T09:12:22.188Z,98796.00
2024-02-13T09:15:14.348Z,98787.00
2024-02-13T09:18:02.116Z,98799.00
2024-02-13T09:20:51.119Z,98792.00
2024-02-13T09:23:39.017Z,98797.00
2024-02-13T09:26:26.852Z,98801.00
2024-02-13T09:29:14.442Z,98804.00
2024-02-13T09:32:02.194Z,98814.00
2024-02-13T09:34:49.887Z,98813.00
2024-02-13T09:37:44.606Z,98815.00
2024-02-13T09:40:33.820Z,98815.00
2024-02-13T09:43:21.473Z,98824.00
2024-02-13T09:46:10.731Z,98826.00
2024-02-13T09:49:01.508Z,98827.00
2024-02-13T09:51:54.655Z,98826.00
2024-02-13T09:54:45.737Z,98828.00
2024-02-13T09:57:33.774Z,98834.00
2024-02-13T10:00:21.558Z,98830.00
2024-02-13T10:03:09.379Z,98825.00
2024-02-13T10:05:57.542Z,98826.00
2024-02-13T10:08:51.267Z,98836.00
2024-02-13T10:11:39.078Z,98835.00
2024-02-13T10:14:26.794Z,98835.00
2024-02-13T10:17:15.494Z,98833.00
2024-02-13T10:20:05.130Z,98835.00
2024-02-13T10:22:56.193Z,98844.00
2024-02-13T10:25:48.268Z,98835.00
2024-02-13T10:28:41.510Z,98842.00
2024-02-13T10:31:35.860Z,98840.00
2024-02-13T10:34:23.528Z,98841.00
2024-02-13T10:37:13.422Z,98853.00
2024-02-13T10:40:09.085Z,98841.00
2024-02-13T10:42:59.646Z,98841.00
2024-02-13T10:45:53.818Z,98840.00
2024-02-13T10:49:02.047Z,98842.00
2024-02-13T10:51:51.437Z,98846.00
2024-02-13T10:54:47.440Z,98839.00
2024-02-13T10:57:38.398Z,98842.00
2024-02-13T11:00:27.822Z,98842.00
2024-02-13T11:03:16.395Z,98843.00
2024-02-13T11:06:04.399Z,98842.00
2024-02-13T11:08:52.743Z,98840.00
2024-02-13T11:11:46.340Z,98834.00
2024-02-13T11:14:34.604Z,98840.00
2024-02-13T11:17:22.247Z,98830.00
2024-02-13T11:20:10.950Z,98826.00
2024-02-13T11:23:01.790Z,98830.00
2024-02-13T11:26:01.132Z,98828.00
2024-02-13T11:28:49.989Z,98826.00
2024-02-13T11:31:40.521Z,98837.00
2024-02-13T11:34:44.648Z,98826.00
2024-02-13T11:37:36.234Z,98826.00
2024-02-13T11:40:23.949Z,98828.00
2024-02-13T11:43:22.140Z,98825.00
2024-02-13T11:46:09.665Z,98826.00
2024-02-13T11:49:00.055Z,98828.00
2024-02-13T11:51:49.199Z,98826.00
2024-02-13T11:54:37.853Z,98823.00
2024-02-13T11:57:28.669Z,98824.00
2024-02-13T12:00:24.087Z,98824.00
2024-02-13T12:03:13.131Z,98814.00
2024-02-13T12:06:06.928Z,98821.00
2024-02-13T12:08:55.346Z,98815.00
2024-02-13T12:11:44.580Z,98819.00
2024-02-13T12:14:32.510Z,98812.00
2024-02-13T12:17:22.712Z,98811.00
2024-02-13T12:20:20.392Z,98819.00
2024-02-13T12:23:13.590Z,98826.00
2024-02-13T12:26:07.993Z,98821.00
2024-02-13T12:28:59.832Z,98812.00
2024-02-13T12:31:48.975Z,98812.00
2024-02-13T12:34:40.290Z,98820.00
2024-02-13T12:37:32.340Z,98818.00
2024-02-13T12:40:21.673Z,98822.00
2024-02-13T12:43:09.877Z,98831.00
2024-02-13T12:46:03.973Z,98826.00
2024-02-13T12:48:52.813Z,98827.00
2024-02-13T12:51:45.112Z,98819.00
2024-02-13T12:54:36.901Z,98828.00
2024-02-13T12:57:25.897Z,98827.00
2024-02-13T13:00:16.132Z,98827.00
2024-02-13T13:03:05.891Z,98826.00
2024-02-13T13:05:53.750Z,98825.00
2024-02-13T13:08:43.407Z,98817.00
2024-02-13T13:11:31.389Z,98826.00
2024-02-13T13:14:20.141Z,98830.00
2024-02-13T13:17:08.915Z,98827.00
2024-02-13T13:19:56.814Z,98835.00
2024-02-13T13:22:47.785Z,98836.00
2024-02-13T13:25:37.593Z,98832.00
2024-02-13T13:28:27.661Z,98846.00
2024-02-13T13:31:16.908Z,98852.00
2024-02-13T13:34:09.317Z,98838.00
2024-02-13T13:36:58.857Z,98847.00
2024-02-13T13:39:46.470Z,98829.00
2024-02-13T13:42:40.625Z,98848.00
2024-02-13T13:45:28.641Z,98851.00
2024-02-13T13:48:17.534Z,98851.00
2024-02-13T13:51:05.675Z,98845.00
2024-02-13T13:53:53.318Z,98852.00
2024-02-13T13:56:42.074Z,98846.00
2024-02-13T13:59:29.829Z,98852.00
2024-02-13T14:02:17.517Z,98857.00
2024-02-13T14:05:08.102Z,98857.00
2024-02-13T14:07:55.632Z,98857.00
2024-02-13T14:10:45.325Z,98867.00
2024-02-13T14:13:34.142Z,98863.00
2024-02-13T14:16:25.800Z,98863.00
2024-02-13T14:19:13.506Z,98866.00
2024-02-13T14:22:01.727Z,98857.00
2024-02-13T14:24:49.497Z,98870.00
2024-02-13T14:27:38.373Z,98860.00
2024-02-13T14:30:27.116Z,98865.00
2024-02-13T14:33:15.046Z,98860.00
2024-02-13T14:36:04.542Z,98859.00
2024-02-13T14:38:52.238Z,98860.00
2024-02-13T14:41:42.679Z,98864.00
2024-02-13T14:44:34.282Z,98858.00
2024-02-13T14:47:23.445Z,98856.00
2024-02-13T14:50:13.995Z,98864.00
2024-02-13T14:53:01.703Z,98862.00
2024-02-13T14:55:49.290Z,98874.00
2024-02-13T14:58:39.639Z,98873.00
2024-02-13T15:01:28.886Z,98871.00
2024-02-13T15:04:17.266Z,98872.00
2024-02-13T15:07:06.305Z,98874.00
2024-02-13T15:09:53.971Z,98875.00
2024-02-13T15:12:42.129Z,98865.00
2024-02-13T15:15:32.531Z,98870.00
2024-02-13T15:18:20.866Z,98874.00
2024-02-13T15:21:08.602Z,98871.00
2024-02-13T15:23:56.336Z,98868.00
2024-02-13T15:26:50.389Z,98873.00
2024-02-13T15:29:43.706Z,98868.00
2024-02-13T15:32:31.874Z,98870.00
2024-02-13T15:35:25.861Z,98882.00
2024-02-13T15:38:32.344Z,98877.00
2024-02-13T15:41:38.681Z,98881.00
2024-02-13T15:44:44.494Z,98873.00
2024-02-13T15:47:35.159Z,98879.00
2024-02-13T15:50:24.315Z,98877.00
2024-02-13T15:53:13.184Z,98887.00
2024-02-13T15:56:01.085Z,98891.00
2024-02-13T15:58:51.027Z,98891.00
2024-02-13T16:01:38.596Z,98892.00
2024-02-13T16:04:26.183Z,98897.00
2024-02-13T16:07:16.681Z,98890.00
2024-02-13T16:10:07.321Z,98905.00
2024-02-13T16:12:56.413Z,98913.00
2024-02-13T16:15:43.980Z,98909.00
2024-02-13T16:18:31.805Z,98918.00
2024-02-13T16:21:19.518Z,98924.00
2024-02-13T16:24:08.405Z,98928.00
2024-02-13T16:26:56.149Z,98926.00
2024-02-13T16:29:43.726Z,98929.00
2024-02-13T16:32:36.350Z,98930.00
2024-02-13T16:35:28.103Z,98932.00
2024-02-13T16:38:16.608Z,98946.00
2024-02-13T16:41:04.396Z,98947.00
2024-02-13T16:43:52.307Z,98946.00
2024-02-13T16:46:39.848Z,98943.00
2024-02-13T16:49:27.499Z,98939.00
2024-02-13T16:52:15.525Z,98947.00
2024-02-13T16:55:04.156Z,98950.00
2024-02-13T16:57:53.278Z,98955.00
2024-02-13T17:00:40.945Z,98954.00
2024-02-13T17:03:28.770Z,98953.00
2024-02-13T17:06:16.638Z,98960.00
2024-02-13T17:09:04.757Z,98962.00
2024-02-13T17:11:53.022Z,98963.00
2024-02-13T17:14:41.821Z,98956.00
2024-02-13T17:17:29.567Z,98959.00
2024-02-13T17:20:18.533Z,98955.00
2024-02-13T17:23:09.415Z,98956.00
2024-02-13T17:25:56.971Z,98967.00
2024-02-13T17:28:44.536Z,98974.00
2024-02-13T17:31:32.218Z,98973.00
2024-02-13T17:34:20.135Z,98978.00
2024-02-13T17:37:08.659Z,98982.00
2024-02-13T17:39:56.258Z,98979.00
2024-02-13T17:42:45.435Z,98996.00
2024-02-13T17:45:32.999Z,98997.00
2024-02-13T17:48:21.486Z,98999.00
2024-02-13T17:51:09.361Z,98993.00
2024-02-13T17:53:56.980Z,98991.00
2024-02-13T17:56:45.596Z,98994.00
2024-02-13T17:59:35.106Z,98994.00
2024-02-13T18:02:22.734Z,98988.00
2024-02-13T18:05:10.807Z,98991.00
2024-02-13T18:08:00.000Z,98999.00
2024-02-13T18:10:47.615Z,98993.00
2024-02-13T18:13:35.237Z,99002.00
2024-02-13T18:16:22.757Z,99000.00
2024-02-13T18:19:11.966Z,99000.00
2024-02-13T18:21:59.839Z,98997.00
2024-02-13T18:24:47.501Z,98991.00
2024-02-13T18:27:35.092Z,98998.00
2024-02-13T18:30:22.995Z,98987.00
2024-02-13T18:33:10.758Z,98998.00
2024-02-13T18:35:58.472Z,98995.00
2024-02-13T18:38:46.621Z,98995.00
2024-02-13T18:41:34.523Z,99000.00
2024-02-13T18:44:23.978Z,98999.00
2024-02-13T18:47:13.818Z,98993.00
2024-02-13T18:50:02.623Z,98991.00
2024-02-13T18:52:50.214Z,99002.00
2024-02-13T18:55:38.108Z,98998.00
2024-02-13T18:58:26.396Z,99004.00
2024-02-13T19:01:14.004Z,99009.00
2024-02-13T19:04:01.609Z,99011.00
2024-02-13T19:06:50.442Z,99015.00
2024-02-13T19:09:38.082Z,99009.00
2024-02-13T19:12:25.733Z,99010.00
2024-02-13T19:15:16.283Z,99014.00
2024-02-13T19:18:04.434Z,99005.00
2024-02-13T19:20:55.649Z,99005.00
2024-02-13T19:23:43.278Z,99014.00
2024-02-13T19:26:30.907Z,99018.00
2024-02-13T19:29:18.434Z,99016.00
2024-02-13T19:32:06.462Z,99018.00
2024-02-13T19:34:54.057Z,99015.00
2024-02-13T19:37:41.631Z,99005.00
2024-02-13T19:40:29.198Z,99010.00
2024-02-13T19:43:16.877Z,99025.00
2024-02-13T19:46:05.046Z,99016.00
2024-02-13T19:48:52.967Z,99024.00
2024-02-13T19:51:40.739Z,99026.00
2024-02-13T19:54:28.321Z,99036.00
2024-02-13T19:57:16.362Z,99041.00
2024-02-13T20:00:05.025Z,99042.00
2024-02-13T20:02:52.801Z,99041.00
2024-02-13T20:05:40.661Z,99042.00
2024-02-13T20:08:28.355Z,99041.00
2024-02-13T20:11:17.711Z,99043.00
2024-02-13T20:14:05.678Z,99054.00
2024-02-13T20:16:53.207Z,99047.00
2024-02-13T20:19:41.560Z,99051.00
2024-02-13T20:22:29.783Z,99037.00
2024-02-13T20:25:17.544Z,99037.00
2024-02-13T20:28:07.152Z,99041.00
2024-02-13T20:30:55.590Z,99043.00
2024-02-13T20:33:43.453Z,99040.00
2024-02-13T20:36:31.382Z,99050.00
2024-02-13T20:39:18.925Z,99044.00
2024-02-13T20:42:06.612Z,99055.00
2024-02-13T20:44:57.706Z,99064.00
2024-02-13T20:47:47.065Z,99062.00
2024-02-13T20:50:34.730Z,99065.00
2024-02-13T20:53:25.631Z,99063.00
2024-02-13T20:56:13.683Z,99060.00
2024-02-13T20:59:01.240Z,99057.00
2024-02-13T21:01:49.384Z,99064.00
2024-02-13T21:04:37.221Z,99065.00
2024-02-13T21:07:25.958Z,99063.00
2024-02-13T21:10:13.570Z,99063.00
2024-02-13T21:13:01.238Z,99064.00
2024-02-13T21:15:48.802Z,99063.00
2024-02-13T21:18:36.951Z,99062.00
2024-02-13T21:21:43.136Z,99065.00
2024-02-13T21:24:30.728Z,99067.00
2024-02-13T21:27:18.529Z,99070.00
2024-02-13T21:30:07.736Z,99066.00
2024-02-13T21:32:55.439Z,99067.00
2024-02-13T21:35:43.066Z,99070.00
2024-02-13T21:38:30.678Z,99071.00
2024-02-13T21:41:18.280Z,99064.00
2024-02-13T21:44:06.018Z,99065.00
2024-02-13T21:46:56.581Z,99073.00
2024-02-13T21:49:44.205Z,99076.00
2024-02-13T21:52:31.797Z,99082.00
2024-02-13T21:55:19.336Z,99083.00
2024-02-13T21:58:06.927Z,99082.00
2024-02-13T22:00:54.593Z,99081.00
2024-02-13T22:03:42.656Z,99075.00
2024-02-13T22:06:30.748Z,99077.00
2024-02-13T22:09:18.561Z,99084.00
2024-02-13T22:12:08.139Z,99072.00
2024-02-13T22:14:55.785Z,99076.00
2024-02-13T22:17:43.519Z,99082.00
2024-02-13T22:20:35.116Z,99079.00
2024-02-13T22:23:22.989Z,99079.00
2024-02-13T22:26:11.016Z,99076.00
2024-02-13T22:28:58.599Z,99081.00
2024-02-13T22:31:46.232Z,99077.00
2024-02-13T22:34:33.842Z,99088.00
2024-02-13T22:37:21.539Z,99088.00
2024-02-13T22:40:09.800Z,99085.00
2024-02-13T22:42:57.329Z,99095.00
2024-02-13T22:45:44.931Z,99097.00
2024-02-13T22:48:32.548Z,99099.00
2024-02-13T22:51:20.208Z,99099.00
2024-02-13T22:54:07.901Z,99100.00
2024-02-13T22:56:57.713Z,99102.00
2024-02-13T22:59:45.419Z,99093.00
2024-02-13T23:02:33.043Z,99108.00
2024-02-13T23:05:20.746Z,99106.00
2024-02-13T23:08:09.523Z,99105.00
2024-02-13T23:10:57.564Z,99108.00
2024-02-13T23:13:49.564Z,99118.00
2024-02-13T23:16:41.894Z,99114.00
2024-02-13T23:19:29.424Z,99116.00
2024-02-13T23:22:17.048Z,99114.00
2024-02-13T23:25:06.607Z,99111.00
2024-02-13T23:27:54.289Z,99110.00
2024-02-13T23:30:44.447Z,99104.00
2024-02-13T23:33:33.089Z,99106.00
2024-02-13T23:36:21.293Z,99112.00
2024-02-13T23:39:09.807Z,99113.00
2024-02-13T23:41:57.460Z,99121.00
2024-02-13T23:44:45.700Z,99120.00
2024-02-13T23:47:33.320Z,99124.00
2024-02-13T23:50:21.423Z,99118.00
2024-02-13T23:53:09.214Z,99124.00
2024-02-13T23:55:56.885Z,99118.00
2024-02-13T23:58:44.580Z,99124.00
